sensor_id;sensor_type;location;lat;lon;timestamp;pressure;altitude;pressure_sealevel;temperature;humidity
16094;BME280;8151;47.824;12.092;2023-05-27T00:00:24;96855.97;;;18.18;64.20
16094;BME280;8151;47.824;12.092;2023-05-27T00:02:52;96847.28;;;18.03;64.70
16094;BME280;8151;47.824;12.092;2023-05-27T00:05:21;96850.38;;;18.00;64.29
16094;BME280;8151;47.824;12.092;2023-05-27T00:07:55;96847.28;;;17.96;64.19
16094;BME280;8151;47.824;12.092;2023-05-27T00:10:25;96854.50;;;17.96;64.20
16094;BME280;8151;47.824;12.092;2023-05-27T00:12:54;96843.59;;;17.97;63.96
16094;BME280;8151;47.824;12.092;2023-05-27T00:15:23;96841.94;;;18.03;63.86
16094;BME280;8151;47.824;12.092;2023-05-27T00:17:52;96847.31;;;18.09;63.81
16094;BME280;8151;47.824;12.092;2023-05-27T00:20:22;96845.47;;;18.17;63.61
16094;BME280;8151;47.824;12.092;2023-05-27T00:22:50;96845.25;;;18.18;63.60
16094;BME280;8151;47.824;12.092;2023-05-27T00:25:19;96846.72;;;18.21;63.51
16094;BME280;8151;47.824;12.092;2023-05-27T00:27:49;96839.31;;;18.23;63.31
16094;BME280;8151;47.824;12.092;2023-05-27T00:30:18;96850.59;;;18.18;63.37
16094;BME280;8151;47.824;12.092;2023-05-27T00:32:46;96848.56;;;18.07;63.60
16094;BME280;8151;47.824;12.092;2023-05-27T00:35:21;96838.44;;;18.02;63.68
16094;BME280;8151;47.824;12.092;2023-05-27T00:37:50;96847.91;;;17.98;63.67
16094;BME280;8151;47.824;12.092;2023-05-27T00:40:21;96835.97;;;18.01;63.70
16094;BME280;8151;47.824;12.092;2023-05-27T00:42:51;96846.06;;;17.99;63.72
16094;BME280;8151;47.824;12.092;2023-05-27T00:45:19;96840.69;;;17.99;63.69
16094;BME280;8151;47.824;12.092;2023-05-27T00:47:58;96846.28;;;17.97;63.57
16094;BME280;8151;47.824;12.092;2023-05-27T00:50:28;96842.13;;;17.95;63.50
16094;BME280;8151;47.824;12.092;2023-05-27T00:52:58;96836.59;;;17.89;63.69
16094;BME280;8151;47.824;12.092;2023-05-27T00:55:27;96834.50;;;17.85;63.79
16094;BME280;8151;47.824;12.092;2023-05-27T00:57:59;96838.16;;;17.77;64.08
16094;BME280;8151;47.824;12.092;2023-05-27T01:00:27;96835.91;;;17.74;64.15
16094;BME280;8151;47.824;12.092;2023-05-27T01:02:57;96832.56;;;17.59;64.50
16094;BME280;8151;47.824;12.092;2023-05-27T01:05:26;96830.63;;;17.39;65.00
16094;BME280;8151;47.824;12.092;2023-05-27T01:08:05;96833.69;;;17.36;65.16
16094;BME280;8151;47.824;12.092;2023-05-27T01:10:45;96832.06;;;17.42;64.89
16094;BME280;8151;47.824;12.092;2023-05-27T01:13:24;96833.50;;;17.44;64.77
16094;BME280;8151;47.824;12.092;2023-05-27T01:15:58;96832.72;;;17.50;64.65
16094;BME280;8151;47.824;12.092;2023-05-27T01:18:28;96842.41;;;17.51;64.56
16094;BME280;8151;47.824;12.092;2023-05-27T01:21:03;96842.59;;;17.50;64.53
16094;BME280;8151;47.824;12.092;2023-05-27T01:23:35;96834.56;;;17.50;64.45
16094;BME280;8151;47.824;12.092;2023-05-27T01:26:05;96838.06;;;17.50;64.47
16094;BME280;8151;47.824;12.092;2023-05-27T01:28:34;96835.00;;;17.54;64.41
16094;BME280;8151;47.824;12.092;2023-05-27T01:31:11;96830.28;;;17.56;64.18
16094;BME280;8151;47.824;12.092;2023-05-27T01:33:42;96837.28;;;17.57;64.00
16094;BME280;8151;47.824;12.092;2023-05-27T01:36:17;96837.28;;;17.57;64.06
16094;BME280;8151;47.824;12.092;2023-05-27T01:38:49;96833.75;;;17.56;63.92
16094;BME280;8151;47.824;12.092;2023-05-27T01:41:19;96836.66;;;17.55;63.97
16094;BME280;8151;47.824;12.092;2023-05-27T01:43:49;96831.69;;;17.51;63.94
16094;BME280;8151;47.824;12.092;2023-05-27T01:46:18;96832.50;;;17.52;63.97
16094;BME280;8151;47.824;12.092;2023-05-27T01:48:47;96835.81;;;17.47;63.89
16094;BME280;8151;47.824;12.092;2023-05-27T01:51:15;96838.88;;;17.44;64.02
16094;BME280;8151;47.824;12.092;2023-05-27T01:53:44;96834.56;;;17.43;63.93
16094;BME280;8151;47.824;12.092;2023-05-27T01:56:14;96829.59;;;17.40;63.92
16094;BME280;8151;47.824;12.092;2023-05-27T01:58:42;96831.25;;;17.41;63.90
16094;BME280;8151;47.824;12.092;2023-05-27T02:01:11;96831.44;;;17.40;63.90
16094;BME280;8151;47.824;12.092;2023-05-27T02:03:40;96825.69;;;17.36;63.87
16094;BME280;8151;47.824;12.092;2023-05-27T02:06:09;96829.38;;;17.35;63.75
16094;BME280;8151;47.824;12.092;2023-05-27T02:08:37;96830.22;;;17.36;63.66
16094;BME280;8151;47.824;12.092;2023-05-27T02:11:06;96826.91;;;17.34;63.51
16094;BME280;8151;47.824;12.092;2023-05-27T02:13:36;96823.59;;;17.31;63.67
16094;BME280;8151;47.824;12.092;2023-05-27T02:16:05;96824.81;;;17.29;63.64
16094;BME280;8151;47.824;12.092;2023-05-27T02:18:33;96825.00;;;17.21;63.68
16094;BME280;8151;47.824;12.092;2023-05-27T02:21:02;96826.41;;;17.10;63.79
16094;BME280;8151;47.824;12.092;2023-05-27T02:23:33;96825.28;;;16.98;64.15
16094;BME280;8151;47.824;12.092;2023-05-27T02:26:02;96823.03;;;16.95;64.35
16094;BME280;8151;47.824;12.092;2023-05-27T02:28:35;96827.31;;;16.89;64.25
16094;BME280;8151;47.824;12.092;2023-05-27T02:31:04;96828.31;;;16.88;64.36
16094;BME280;8151;47.824;12.092;2023-05-27T02:33:32;96828.13;;;16.89;64.51
16094;BME280;8151;47.824;12.092;2023-05-27T02:36:01;96831.16;;;16.86;64.46
16094;BME280;8151;47.824;12.092;2023-05-27T02:38:29;96824.81;;;16.87;64.30
16094;BME280;8151;47.824;12.092;2023-05-27T02:41:08;96827.94;;;16.91;64.00
16094;BME280;8151;47.824;12.092;2023-05-27T02:43:37;96827.31;;;16.89;64.06
16094;BME280;8151;47.824;12.092;2023-05-27T02:46:10;96823.75;;;16.82;64.08
16094;BME280;8151;47.824;12.092;2023-05-27T02:48:39;96829.44;;;16.79;64.23
16094;BME280;8151;47.824;12.092;2023-05-27T02:51:07;96831.28;;;16.71;64.43
16094;BME280;8151;47.824;12.092;2023-05-27T02:53:36;96832.25;;;16.64;64.50
16094;BME280;8151;47.824;12.092;2023-05-27T02:56:05;96833.59;;;16.53;64.89
16094;BME280;8151;47.824;12.092;2023-05-27T02:58:33;96830.44;;;16.43;65.01
16094;BME280;8151;47.824;12.092;2023-05-27T03:01:03;96826.31;;;16.40;65.17
16094;BME280;8151;47.824;12.092;2023-05-27T03:03:31;96832.66;;;16.39;65.12
16094;BME280;8151;47.824;12.092;2023-05-27T03:06:00;96825.63;;;16.31;65.08
16094;BME280;8151;47.824;12.092;2023-05-27T03:08:30;96826.59;;;16.24;65.24
16094;BME280;8151;47.824;12.092;2023-05-27T03:10:59;96825.50;;;16.18;65.29
16094;BME280;8151;47.824;12.092;2023-05-27T03:13:27;96825.47;;;16.11;65.50
16094;BME280;8151;47.824;12.092;2023-05-27T03:15:56;96826.16;;;15.99;65.95
16094;BME280;8151;47.824;12.092;2023-05-27T03:18:27;96828.56;;;15.93;65.72
16094;BME280;8151;47.824;12.092;2023-05-27T03:20:56;96827.56;;;15.94;65.96
16094;BME280;8151;47.824;12.092;2023-05-27T03:23:24;96828.19;;;15.97;66.00
16094;BME280;8151;47.824;12.092;2023-05-27T03:25:53;96832.75;;;16.03;65.80
16094;BME280;8151;47.824;12.092;2023-05-27T03:28:21;96824.72;;;15.96;65.88
16094;BME280;8151;47.824;12.092;2023-05-27T03:30:50;96836.97;;;15.90;65.68
16094;BME280;8151;47.824;12.092;2023-05-27T03:33:23;96828.50;;;15.87;65.96
16094;BME280;8151;47.824;12.092;2023-05-27T03:35:53;96829.59;;;15.92;65.58
16094;BME280;8151;47.824;12.092;2023-05-27T03:38:26;96830.69;;;15.98;65.49
16094;BME280;8151;47.824;12.092;2023-05-27T03:40:54;96824.94;;;16.01;65.48
16094;BME280;8151;47.824;12.092;2023-05-27T03:43:23;96831.75;;;16.04;65.64
16094;BME280;8151;47.824;12.092;2023-05-27T03:45:51;96825.00;;;16.08;65.29
16094;BME280;8151;47.824;12.092;2023-05-27T03:48:20;96824.63;;;16.11;65.37
16094;BME280;8151;47.824;12.092;2023-05-27T03:50:49;96823.44;;;16.13;65.22
16094;BME280;8151;47.824;12.092;2023-05-27T03:53:19;96823.63;;;16.12;65.34
16094;BME280;8151;47.824;12.092;2023-05-27T03:55:56;96828.13;;;16.11;65.05
16094;BME280;8151;47.824;12.092;2023-05-27T03:58:24;96835.25;;;16.04;65.11
16094;BME280;8151;47.824;12.092;2023-05-27T04:00:53;96833.53;;;15.97;65.38
16094;BME280;8151;47.824;12.092;2023-05-27T04:03:22;96833.25;;;15.91;65.36
16094;BME280;8151;47.824;12.092;2023-05-27T04:05:50;96834.88;;;15.86;65.68
16094;BME280;8151;47.824;12.092;2023-05-27T04:08:20;96833.66;;;15.88;65.73
16094;BME280;8151;47.824;12.092;2023-05-27T04:10:49;96840.09;;;15.94;65.59
16094;BME280;8151;47.824;12.092;2023-05-27T04:13:17;96840.84;;;15.88;65.90
16094;BME280;8151;47.824;12.092;2023-05-27T04:15:46;96835.72;;;15.71;66.09
16094;BME280;8151;47.824;12.092;2023-05-27T04:18:16;96834.63;;;15.66;66.52
16094;BME280;8151;47.824;12.092;2023-05-27T04:20:44;96829.47;;;15.64;66.55
16094;BME280;8151;47.824;12.092;2023-05-27T04:23:14;96831.06;;;15.59;66.39
16094;BME280;8151;47.824;12.092;2023-05-27T04:25:44;96829.41;;;15.58;66.37
16094;BME280;8151;47.824;12.092;2023-05-27T04:28:13;96837.59;;;15.56;66.72
16094;BME280;8151;47.824;12.092;2023-05-27T04:30:42;96837.53;;;15.49;67.16
16094;BME280;8151;47.824;12.092;2023-05-27T04:33:15;96831.34;;;15.49;66.94
16094;BME280;8151;47.824;12.092;2023-05-27T04:35:44;96826.00;;;15.49;67.15
16094;BME280;8151;47.824;12.092;2023-05-27T04:38:12;96830.22;;;15.58;67.17
16094;BME280;8151;47.824;12.092;2023-05-27T04:40:45;96825.16;;;15.63;67.08
16094;BME280;8151;47.824;12.092;2023-05-27T04:43:23;96834.06;;;15.70;66.59
16094;BME280;8151;47.824;12.092;2023-05-27T04:45:53;96828.81;;;15.77;66.28
16094;BME280;8151;47.824;12.092;2023-05-27T04:48:23;96823.84;;;15.74;66.40
16094;BME280;8151;47.824;12.092;2023-05-27T04:50:51;96822.84;;;15.60;66.67
16094;BME280;8151;47.824;12.092;2023-05-27T04:53:20;96830.16;;;15.51;67.30
16094;BME280;8151;47.824;12.092;2023-05-27T04:55:51;96821.97;;;15.53;66.96
16094;BME280;8151;47.824;12.092;2023-05-27T04:58:20;96827.38;;;15.60;67.36
16094;BME280;8151;47.824;12.092;2023-05-27T05:00:48;96827.56;;;15.73;66.76
16094;BME280;8151;47.824;12.092;2023-05-27T05:03:21;96831.38;;;15.85;66.62
16094;BME280;8151;47.824;12.092;2023-05-27T05:06:04;96835.56;;;15.94;66.52
16094;BME280;8151;47.824;12.092;2023-05-27T05:08:32;96830.09;;;16.03;66.25
16094;BME280;8151;47.824;12.092;2023-05-27T05:11:12;96826.28;;;16.12;66.42
16094;BME280;8151;47.824;12.092;2023-05-27T05:13:41;96833.53;;;16.18;66.21
16094;BME280;8151;47.824;12.092;2023-05-27T05:16:09;96834.59;;;16.24;66.18
16094;BME280;8151;47.824;12.092;2023-05-27T05:18:38;96833.81;;;16.30;66.23
16094;BME280;8151;47.824;12.092;2023-05-27T05:21:07;96826.50;;;16.39;66.00
16094;BME280;8151;47.824;12.092;2023-05-27T05:23:35;96833.13;;;16.43;65.97
16094;BME280;8151;47.824;12.092;2023-05-27T05:26:03;96837.25;;;16.45;65.67
16094;BME280;8151;47.824;12.092;2023-05-27T05:28:35;96836.03;;;16.48;66.07
16094;BME280;8151;47.824;12.092;2023-05-27T05:31:04;96836.06;;;16.54;66.05
16094;BME280;8151;47.824;12.092;2023-05-27T05:33:32;96832.00;;;16.59;65.82
16094;BME280;8151;47.824;12.092;2023-05-27T05:36:01;96841.09;;;16.64;65.79
16094;BME280;8151;47.824;12.092;2023-05-27T05:38:30;96837.00;;;16.68;65.94
16094;BME280;8151;47.824;12.092;2023-05-27T05:40:59;96841.56;;;16.74;65.84
16094;BME280;8151;47.824;12.092;2023-05-27T05:43:28;96846.53;;;16.78;65.71
16094;BME280;8151;47.824;12.092;2023-05-27T05:45:57;96845.75;;;16.84;65.58
16094;BME280;8151;47.824;12.092;2023-05-27T05:48:28;96842.72;;;16.87;65.65
16094;BME280;8151;47.824;12.092;2023-05-27T05:50:56;96849.31;;;16.91;65.55
16094;BME280;8151;47.824;12.092;2023-05-27T05:53:25;96854.25;;;16.94;65.63
16094;BME280;8151;47.824;12.092;2023-05-27T05:55:55;96851.81;;;16.99;65.51
16094;BME280;8151;47.824;12.092;2023-05-27T05:58:24;96846.91;;;17.03;65.44
16094;BME280;8151;47.824;12.092;2023-05-27T06:00:52;96846.50;;;17.06;65.34
16094;BME280;8151;47.824;12.092;2023-05-27T06:03:24;96844.25;;;17.09;65.42
16094;BME280;8151;47.824;12.092;2023-05-27T06:05:52;96844.50;;;17.15;65.35
16094;BME280;8151;47.824;12.092;2023-05-27T06:08:21;96853.59;;;17.20;65.28
16094;BME280;8151;47.824;12.092;2023-05-27T06:10:49;96852.16;;;17.24;65.20
16094;BME280;8151;47.824;12.092;2023-05-27T06:13:18;96850.94;;;17.27;65.23
16094;BME280;8151;47.824;12.092;2023-05-27T06:15:46;96855.72;;;17.31;65.15
16094;BME280;8151;47.824;12.092;2023-05-27T06:18:15;96852.22;;;17.38;64.97
16094;BME280;8151;47.824;12.092;2023-05-27T06:20:45;96848.94;;;17.42;64.65
16094;BME280;8151;47.824;12.092;2023-05-27T06:23:13;96847.75;;;17.45;64.46
16094;BME280;8151;47.824;12.092;2023-05-27T06:25:42;96846.31;;;17.49;64.22
16094;BME280;8151;47.824;12.092;2023-05-27T06:28:10;96846.94;;;17.51;64.11
16094;BME280;8151;47.824;12.092;2023-05-27T06:30:39;96847.38;;;17.55;63.99
16094;BME280;8151;47.824;12.092;2023-05-27T06:33:08;96851.09;;;17.60;63.65
16094;BME280;8151;47.824;12.092;2023-05-27T06:35:37;96844.94;;;17.66;63.53
16094;BME280;8151;47.824;12.092;2023-05-27T06:38:07;96840.63;;;17.72;63.37
16094;BME280;8151;47.824;12.092;2023-05-27T06:40:35;96837.94;;;17.79;63.17
16094;BME280;8151;47.824;12.092;2023-05-27T06:43:04;96842.69;;;17.83;63.12
16094;BME280;8151;47.824;12.092;2023-05-27T06:45:32;96850.56;;;17.85;62.98
16094;BME280;8151;47.824;12.092;2023-05-27T06:48:02;96841.94;;;17.89;62.83
16094;BME280;8151;47.824;12.092;2023-05-27T06:50:30;96841.31;;;17.94;62.71
16094;BME280;8151;47.824;12.092;2023-05-27T06:52:59;96849.97;;;17.96;62.54
16094;BME280;8151;47.824;12.092;2023-05-27T06:55:32;96841.53;;;17.99;62.38
16094;BME280;8151;47.824;12.092;2023-05-27T06:58:02;96841.53;;;18.06;62.15
16094;BME280;8151;47.824;12.092;2023-05-27T07:00:31;96841.34;;;18.14;62.18
16094;BME280;8151;47.824;12.092;2023-05-27T07:02:59;96840.50;;;18.20;61.99
16094;BME280;8151;47.824;12.092;2023-05-27T07:05:30;96841.78;;;18.24;61.87
16094;BME280;8151;47.824;12.092;2023-05-27T07:07:58;96850.00;;;18.29;61.73
16094;BME280;8151;47.824;12.092;2023-05-27T07:10:27;96843.00;;;18.35;61.64
16094;BME280;8151;47.824;12.092;2023-05-27T07:12:57;96837.25;;;18.38;61.70
16094;BME280;8151;47.824;12.092;2023-05-27T07:15:26;96840.53;;;18.40;61.81
16094;BME280;8151;47.824;12.092;2023-05-27T07:17:55;96843.84;;;18.42;61.74
16094;BME280;8151;47.824;12.092;2023-05-27T07:20:23;96848.78;;;18.45;61.69
16094;BME280;8151;47.824;12.092;2023-05-27T07:22:52;96845.50;;;18.50;61.70
16094;BME280;8151;47.824;12.092;2023-05-27T07:25:21;96840.13;;;18.57;61.32
16094;BME280;8151;47.824;12.092;2023-05-27T07:27:50;96839.28;;;18.63;61.48
16094;BME280;8151;47.824;12.092;2023-05-27T07:30:19;96832.28;;;18.68;61.35
16094;BME280;8151;47.824;12.092;2023-05-27T07:32:48;96832.28;;;18.75;61.19
16094;BME280;8151;47.824;12.092;2023-05-27T07:35:16;96840.94;;;18.77;60.79
16094;BME280;8151;47.824;12.092;2023-05-27T07:37:45;96846.75;;;18.81;60.89
16094;BME280;8151;47.824;12.092;2023-05-27T07:40:13;96836.00;;;18.87;60.83
16094;BME280;8151;47.824;12.092;2023-05-27T07:42:42;96830.00;;;18.92;60.54
16094;BME280;8151;47.824;12.092;2023-05-27T07:45:10;96838.25;;;18.97;60.39
16094;BME280;8151;47.824;12.092;2023-05-27T07:47:43;96826.25;;;19.06;60.20
16094;BME280;8151;47.824;12.092;2023-05-27T07:50:13;96830.97;;;19.11;59.91
16094;BME280;8151;47.824;12.092;2023-05-27T07:52:42;96829.50;;;19.15;60.06
16094;BME280;8151;47.824;12.092;2023-05-27T07:55:10;96830.53;;;19.21;59.90
16094;BME280;8151;47.824;12.092;2023-05-27T07:57:39;96821.44;;;19.28;59.88
16094;BME280;8151;47.824;12.092;2023-05-27T08:00:09;96823.66;;;19.38;59.45
16094;BME280;8151;47.824;12.092;2023-05-27T08:02:38;96828.19;;;19.44;59.26
16094;BME280;8151;47.824;12.092;2023-05-27T08:05:08;96827.94;;;19.53;58.80
16094;BME280;8151;47.824;12.092;2023-05-27T08:07:37;96826.69;;;19.62;58.63
16094;BME280;8151;47.824;12.092;2023-05-27T08:10:07;96829.53;;;19.67;58.84
16094;BME280;8151;47.824;12.092;2023-05-27T08:12:36;96827.06;;;19.72;58.32
16094;BME280;8151;47.824;12.092;2023-05-27T08:15:05;96819.56;;;19.81;58.17
16094;BME280;8151;47.824;12.092;2023-05-27T08:17:34;96814.56;;;19.91;58.03
16094;BME280;8151;47.824;12.092;2023-05-27T08:20:03;96824.44;;;19.97;58.11
16094;BME280;8151;47.824;12.092;2023-05-27T08:22:34;96817.13;;;20.04;57.81
16094;BME280;8151;47.824;12.092;2023-05-27T08:25:04;96817.31;;;20.10;57.82
16094;BME280;8151;47.824;12.092;2023-05-27T08:27:43;96815.19;;;20.18;57.77
16094;BME280;8151;47.824;12.092;2023-05-27T08:30:12;96806.88;;;20.26;57.70
16094;BME280;8151;47.824;12.092;2023-05-27T08:32:41;96802.25;;;20.34;57.41
16094;BME280;8151;47.824;12.092;2023-05-27T08:35:10;96804.47;;;20.43;57.06
16094;BME280;8151;47.824;12.092;2023-05-27T08:37:40;96792.38;;;20.53;56.85
16094;BME280;8151;47.824;12.092;2023-05-27T08:40:12;96804.72;;;20.60;56.51
16094;BME280;8151;47.824;12.092;2023-05-27T08:42:41;96802.59;;;20.69;55.95
16094;BME280;8151;47.824;12.092;2023-05-27T08:45:11;96801.28;;;20.78;55.55
16094;BME280;8151;47.824;12.092;2023-05-27T08:47:43;96789.41;;;20.86;55.52
16094;BME280;8151;47.824;12.092;2023-05-27T08:50:13;96791.78;;;20.94;55.42
16094;BME280;8151;47.824;12.092;2023-05-27T08:52:45;96781.31;;;21.04;55.19
16094;BME280;8151;47.824;12.092;2023-05-27T08:55:15;96790.38;;;21.10;55.10
16094;BME280;8151;47.824;12.092;2023-05-27T08:57:50;96788.06;;;21.14;54.65
16094;BME280;8151;47.824;12.092;2023-05-27T09:00:19;96789.84;;;21.20;54.75
16094;BME280;8151;47.824;12.092;2023-05-27T09:02:48;96784.03;;;21.23;55.11
16094;BME280;8151;47.824;12.092;2023-05-27T09:05:17;96787.06;;;21.27;54.63
16094;BME280;8151;47.824;12.092;2023-05-27T09:07:47;96783.00;;;21.36;54.50
16094;BME280;8151;47.824;12.092;2023-05-27T09:10:16;96794.94;;;21.47;54.49
16094;BME280;8151;47.824;12.092;2023-05-27T09:12:45;96778.47;;;21.55;54.27
16094;BME280;8151;47.824;12.092;2023-05-27T09:15:14;96780.38;;;21.66;54.08
16094;BME280;8151;47.824;12.092;2023-05-27T09:17:46;96787.91;;;21.76;53.65
16094;BME280;8151;47.824;12.092;2023-05-27T09:20:14;96776.56;;;21.86;53.20
16094;BME280;8151;47.824;12.092;2023-05-27T09:22:43;96782.22;;;21.96;52.78
16094;BME280;8151;47.824;12.092;2023-05-27T09:25:14;96779.78;;;22.06;52.98
16094;BME280;8151;47.824;12.092;2023-05-27T09:27:43;96781.22;;;22.09;52.80
16094;BME280;8151;47.824;12.092;2023-05-27T09:30:14;96770.66;;;22.07;52.68
16094;BME280;8151;47.824;12.092;2023-05-27T09:32:43;96776.19;;;22.12;52.50
16094;BME280;8151;47.824;12.092;2023-05-27T09:35:12;96770.66;;;22.07;52.68
16094;BME280;8151;47.824;12.092;2023-05-27T09:37:42;96764.81;;;22.10;52.89
16094;BME280;8151;47.824;12.092;2023-05-27T09:40:14;96761.28;;;22.21;52.60
16094;BME280;8151;47.824;12.092;2023-05-27T09:42:43;96753.00;;;22.35;52.07
16094;BME280;8151;47.824;12.092;2023-05-27T09:45:13;96753.28;;;22.45;51.81
16094;BME280;8151;47.824;12.092;2023-05-27T09:47:47;96753.16;;;22.52;52.00
16094;BME280;8151;47.824;12.092;2023-05-27T09:50:16;96755.97;;;22.57;52.41
16094;BME280;8151;47.824;12.092;2023-05-27T09:52:46;96745.75;;;22.59;52.39
16094;BME280;8151;47.824;12.092;2023-05-27T09:55:33;96739.41;;;22.65;51.85
16094;BME280;8151;47.824;12.092;2023-05-27T09:58:02;96744.81;;;22.77;51.48
16094;BME280;8151;47.824;12.092;2023-05-27T10:00:32;96743.63;;;22.85;51.04
16094;BME280;8151;47.824;12.092;2023-05-27T10:03:02;96744.56;;;22.90;50.92
16094;BME280;8151;47.824;12.092;2023-05-27T10:05:31;96737.16;;;22.97;51.10
16094;BME280;8151;47.824;12.092;2023-05-27T10:08:01;96736.00;;;23.05;50.64
16094;BME280;8151;47.824;12.092;2023-05-27T10:10:51;96716.22;;;23.16;50.09
16094;BME280;8151;47.824;12.092;2023-05-27T10:13:21;96725.81;;;23.24;50.01
16094;BME280;8151;47.824;12.092;2023-05-27T10:15:51;96721.34;;;23.30;49.68
16094;BME280;8151;47.824;12.092;2023-05-27T10:18:24;96714.41;;;23.34;49.84
16094;BME280;8151;47.824;12.092;2023-05-27T10:21:04;96720.06;;;23.32;49.50
16094;BME280;8151;47.824;12.092;2023-05-27T10:23:33;96728.75;;;23.34;49.87
16094;BME280;8151;47.824;12.092;2023-05-27T10:26:06;96716.00;;;23.47;49.48
16094;BME280;8151;47.824;12.092;2023-05-27T10:28:36;96723.56;;;23.62;48.87
16094;BME280;8151;47.824;12.092;2023-05-27T10:31:07;96721.38;;;23.75;48.17
16094;BME280;8151;47.824;12.092;2023-05-27T10:33:37;96712.16;;;23.88;47.61
16094;BME280;8151;47.824;12.092;2023-05-27T10:36:08;96708.22;;;23.96;47.45
16094;BME280;8151;47.824;12.092;2023-05-27T10:38:37;96705.63;;;24.01;47.59
16094;BME280;8151;47.824;12.092;2023-05-27T10:41:08;96711.19;;;24.11;47.38
16094;BME280;8151;47.824;12.092;2023-05-27T10:43:36;96715.13;;;24.21;46.93
16094;BME280;8151;47.824;12.092;2023-05-27T10:46:07;96702.81;;;24.30;46.10
16094;BME280;8151;47.824;12.092;2023-05-27T10:48:37;96702.66;;;24.36;45.89
16094;BME280;8151;47.824;12.092;2023-05-27T10:51:07;96692.72;;;24.42;45.34
16094;BME280;8151;47.824;12.092;2023-05-27T10:53:37;96706.25;;;24.42;44.74
16094;BME280;8151;47.824;12.092;2023-05-27T10:56:05;96711.66;;;24.42;44.90
16094;BME280;8151;47.824;12.092;2023-05-27T10:58:38;96702.66;;;24.36;45.04
16094;BME280;8151;47.824;12.092;2023-05-27T11:01:08;96708.38;;;24.40;44.87
16094;BME280;8151;47.824;12.092;2023-05-27T11:03:42;96690.81;;;24.43;44.99
16094;BME280;8151;47.824;12.092;2023-05-27T11:06:13;96692.09;;;24.52;44.38
16094;BME280;8151;47.824;12.092;2023-05-27T11:08:43;96697.81;;;24.55;44.19
16094;BME280;8151;47.824;12.092;2023-05-27T11:11:12;96693.53;;;24.60;43.79
16094;BME280;8151;47.824;12.092;2023-05-27T11:13:43;96693.41;;;24.71;43.32
16094;BME280;8151;47.824;12.092;2023-05-27T11:16:15;96696.97;;;24.72;42.87
16094;BME280;8151;47.824;12.092;2023-05-27T11:18:45;96693.25;;;24.78;42.93
16094;BME280;8151;47.824;12.092;2023-05-27T11:21:14;96684.69;;;24.86;42.23
16094;BME280;8151;47.824;12.092;2023-05-27T11:23:45;96678.03;;;24.94;42.11
16094;BME280;8151;47.824;12.092;2023-05-27T11:26:15;96676.19;;;25.00;42.31
16094;BME280;8151;47.824;12.092;2023-05-27T11:28:52;96678.13;;;25.04;42.24
16094;BME280;8151;47.824;12.092;2023-05-27T11:31:26;96669.84;;;25.11;42.27
16094;BME280;8151;47.824;12.092;2023-05-27T11:33:55;96672.25;;;25.12;42.10
16094;BME280;8151;47.824;12.092;2023-05-27T11:36:26;96670.41;;;25.13;41.72
16094;BME280;8151;47.824;12.092;2023-05-27T11:38:56;96665.53;;;25.15;41.51
16094;BME280;8151;47.824;12.092;2023-05-27T11:41:27;96665.53;;;25.15;41.23
16094;BME280;8151;47.824;12.092;2023-05-27T11:44:07;96665.56;;;25.20;41.44
16094;BME280;8151;47.824;12.092;2023-05-27T11:46:37;96650.22;;;25.26;40.95
16094;BME280;8151;47.824;12.092;2023-05-27T11:49:06;96654.13;;;25.35;40.80
16094;BME280;8151;47.824;12.092;2023-05-27T11:51:37;96649.56;;;25.41;40.75
16094;BME280;8151;47.824;12.092;2023-05-27T11:54:07;96658.31;;;25.48;40.75
16094;BME280;8151;47.824;12.092;2023-05-27T11:56:35;96651.63;;;25.56;40.32
16094;BME280;8151;47.824;12.092;2023-05-27T11:59:07;96650.28;;;25.58;39.65
16094;BME280;8151;47.824;12.092;2023-05-27T12:01:36;96646.28;;;25.66;39.26
16094;BME280;8151;47.824;12.092;2023-05-27T12:04:05;96644.50;;;25.77;38.92
16094;BME280;8151;47.824;12.092;2023-05-27T12:06:35;96628.59;;;25.90;38.89
16094;BME280;8151;47.824;12.092;2023-05-27T12:09:06;96636.75;;;25.90;38.83
16094;BME280;8151;47.824;12.092;2023-05-27T12:11:35;96634.28;;;25.89;38.97
16094;BME280;8151;47.824;12.092;2023-05-27T12:14:04;96631.09;;;25.92;38.73
16094;BME280;8151;47.824;12.092;2023-05-27T12:16:36;96628.38;;;25.92;38.48
16094;BME280;8151;47.824;12.092;2023-05-27T12:19:06;96624.63;;;25.98;38.21
16094;BME280;8151;47.824;12.092;2023-05-27T12:21:34;96630.09;;;26.08;38.33
16094;BME280;8151;47.824;12.092;2023-05-27T12:24:06;96609.53;;;26.12;38.17
16094;BME280;8151;47.824;12.092;2023-05-27T12:26:35;96609.31;;;26.19;38.44
16094;BME280;8151;47.824;12.092;2023-05-27T12:29:04;96610.97;;;26.25;38.25
16094;BME280;8151;47.824;12.092;2023-05-27T12:31:36;96608.56;;;26.29;37.80
16094;BME280;8151;47.824;12.092;2023-05-27T12:34:06;96604.22;;;26.33;37.75
16094;BME280;8151;47.824;12.092;2023-05-27T12:36:35;96599.09;;;26.37;37.78
16094;BME280;8151;47.824;12.092;2023-05-27T12:39:04;96605.34;;;26.42;37.60
16094;BME280;8151;47.824;12.092;2023-05-27T12:41:33;96604.03;;;26.50;37.36
16094;BME280;8151;47.824;12.092;2023-05-27T12:44:01;96595.66;;;26.57;36.90
16094;BME280;8151;47.824;12.092;2023-05-27T12:46:30;96597.34;;;26.63;36.86
16094;BME280;8151;47.824;12.092;2023-05-27T12:49:00;96595.19;;;26.70;36.71
16094;BME280;8151;47.824;12.092;2023-05-27T12:51:29;96588.16;;;26.74;36.99
16094;BME280;8151;47.824;12.092;2023-05-27T12:53:59;96583.84;;;26.83;36.55
16094;BME280;8151;47.824;12.092;2023-05-27T12:56:29;96590.38;;;26.87;36.30
16094;BME280;8151;47.824;12.092;2023-05-27T12:58:58;96586.00;;;26.86;36.05
16094;BME280;8151;47.824;12.092;2023-05-27T13:01:26;96590.13;;;26.89;36.18
16094;BME280;8151;47.824;12.092;2023-05-27T13:03:56;96571.91;;;26.95;36.52
16094;BME280;8151;47.824;12.092;2023-05-27T13:06:26;96574.94;;;27.03;36.70
16094;BME280;8151;47.824;12.092;2023-05-27T13:08:54;96576.56;;;27.09;36.77
16094;BME280;8151;47.824;12.092;2023-05-27T13:11:23;96570.06;;;27.10;36.54
16094;BME280;8151;47.824;12.092;2023-05-27T13:13:53;96569.22;;;27.10;36.36